Time;durP1;ratioP1;P1;durP2;ratioP2;P2;SDS_P1;SDS_P2;PMS_P1;PMS_P2;Temp;Humidity;BMP_temperature;BMP_pressure;BME280_temperature;BME280_humidity;BME280_pressure;Samples;Min_cycle;Max_cycle;Signal;HPM_P1;HPM_P2
2023/09/24 00:00:56;;;;;;;0.80;0.47;;;;;;;-143.84;99.24;45110.00;5091236;28;20440;-59
2023/09/24 00:03:23;;;;;;;1.00;0.90;;;;;;;-143.84;99.52;45119.53;5090947;28;20895;-59
2023/09/24 00:05:51;;;;;;;0.90;0.80;;;;;;;-143.84;99.46;45144.28;5090880;28;20439;-59
2023/09/24 00:08:20;;;;;;;0.90;0.70;;;;;;;-143.84;99.28;45104.28;5091000;28;20837;-59
2023/09/24 00:10:50;;;;;;;0.87;0.63;;;;;;;-143.84;99.26;45115.72;5091143;28;20456;-59
2023/09/24 00:13:17;;;;;;;1.30;0.83;;;;;;;-143.84;99.09;45144.28;5091069;28;20482;-59
2023/09/24 00:15:44;;;;;;;0.90;0.80;;;;;;;-143.84;99.14;45130.94;5091096;28;20439;-59
2023/09/24 00:18:11;;;;;;;2.80;2.17;;;;;;;-143.84;99.13;45140.47;5090088;28;20479;-59
2023/09/24 00:20:39;;;;;;;0.97;0.63;;;;;;;-143.84;99.15;45110.00;5090559;28;20540;-59
2023/09/24 00:23:06;;;;;;;0.90;0.70;;;;;;;-143.84;99.15;45115.72;5090528;28;20479;-59
2023/09/24 00:25:34;;;;;;;0.90;0.70;;;;;;;-143.84;99.26;45127.13;5090717;28;20432;-59
2023/09/24 00:28:02;;;;;;;1.00;0.70;;;;;;;-143.84;99.13;45129.03;5090342;28;20444;-59
2023/09/24 00:30:31;;;;;;;1.10;1.00;;;;;;;-143.84;99.25;45113.81;5090114;28;20432;-59
2023/09/24 00:32:59;;;;;;;1.40;1.30;;;;;;;-143.84;99.16;45123.34;5089876;28;20480;-59
2023/09/24 00:35:26;;;;;;;1.67;1.57;;;;;;;-143.84;99.60;45119.53;5090343;28;21033;-59
2023/09/24 00:37:54;;;;;;;0.93;0.73;;;;;;;-143.84;99.49;45111.91;5090402;28;20451;-59
2023/09/24 00:40:21;;;;;;;1.03;0.93;;;;;;;-143.84;99.53;45090.97;5090064;28;20452;-59
2023/09/24 00:42:50;;;;;;;0.87;0.57;;;;;;;-143.84;99.78;45115.72;5090045;28;20493;-59
2023/09/24 00:45:17;;;;;;;1.27;0.93;;;;;;;-143.84;99.66;45113.81;5089262;28;20541;-59
2023/09/24 00:47:47;;;;;;;1.60;1.50;;;;;;;-143.84;99.73;45117.63;5090089;28;20447;-59
2023/09/24 00:50:15;;;;;;;0.90;0.60;;;;;;;-143.84;99.54;45129.03;5090165;28;20448;-59
2023/09/24 00:52:44;;;;;;;1.20;1.10;;;;;;;-143.84;99.60;45119.53;5090261;28;21013;-59
2023/09/24 00:55:13;;;;;;;0.90;0.80;;;;;;;-143.84;99.65;45119.53;5089626;28;20497;-59
2023/09/24 00:57:41;;;;;;;0.80;0.60;;;;;;;-143.84;99.72;45102.38;5089822;28;20473;-59
2023/09/24 01:00:19;;;;;;;0.93;0.73;;;;;;;-143.84;99.88;45129.03;5090195;28;20439;-59
2023/09/24 01:02:49;;;;;;;1.00;0.90;;;;;;;-143.84;99.95;45115.72;5090104;28;20450;-59
2023/09/24 01:05:17;;;;;;;0.90;0.60;;;;;;;-143.84;99.86;45127.13;5090032;28;20518;-59
2023/09/24 01:07:44;;;;;;;1.00;0.90;;;;;;;-143.84;99.76;45134.75;5090037;28;20447;-59
2023/09/24 01:10:11;;;;;;;1.20;0.67;;;;;;;-143.84;99.62;45138.56;5089663;28;20440;-59
2023/09/24 01:12:39;;;;;;;1.10;0.73;;;;;;;-143.84;99.62;45117.63;5089625;28;20530;-59
2023/09/24 01:15:13;;;;;;;1.40;1.00;;;;;;;-143.84;99.80;45130.94;5089830;28;20523;-59
2023/09/24 01:17:40;;;;;;;0.90;0.77;;;;;;;-143.84;99.46;45125.22;5089664;28;20463;-60
2023/09/24 01:20:13;;;;;;;0.97;0.87;;;;;;;-143.84;99.59;45125.22;5089229;28;20475;-60
2023/09/24 01:22:42;;;;;;;0.90;0.70;;;;;;;-143.84;99.51;45117.63;5089584;28;20455;-60
2023/09/24 01:25:11;;;;;;;1.53;1.00;;;;;;;-143.84;99.42;45079.53;5089248;28;20549;-60
2023/09/24 01:27:39;;;;;;;1.67;1.03;;;;;;;-143.84;99.45;45125.22;5089363;28;20443;-60
2023/09/24 01:30:07;;;;;;;1.10;0.87;;;;;;;-143.84;99.43;45106.19;5089550;28;20800;-60
2023/09/24 01:32:36;;;;;;;1.40;1.30;;;;;;;-143.84;99.49;45132.84;5089209;28;20444;-60
2023/09/24 01:35:06;;;;;;;1.03;0.80;;;;;;;-143.84;99.58;45125.22;5089364;28;20462;-60
2023/09/24 01:37:34;;;;;;;1.27;1.17;;;;;;;-143.84;99.65;45127.13;5089264;28;20444;-57
2023/09/24 01:40:09;;;;;;;0.90;0.73;;;;;;;-143.84;99.71;45127.13;5088698;28;20462;-57
2023/09/24 01:42:36;;;;;;;2.70;0.97;;;;;;;-143.84;99.79;45096.66;5088872;28;20963;-57
2023/09/24 01:45:08;;;;;;;1.00;0.83;;;;;;;-143.84;99.74;45121.44;5088607;28;20811;-58
2023/09/24 01:47:36;;;;;;;1.00;0.80;;;;;;;-143.84;99.74;45115.72;5089208;28;20447;-57
2023/09/24 01:50:06;;;;;;;1.20;1.07;;;;;;;-143.84;99.80;45138.56;5088948;28;20444;-57
2023/09/24 01:52:34;;;;;;;0.90;0.50;;;;;;;-143.84;100.00;45121.44;5088986;28;20451;-57
2023/09/24 01:55:04;;;;;;;1.40;0.87;;;;;;;-143.84;99.43;45102.38;5088527;28;20444;-57
2023/09/24 01:57:31;;;;;;;1.10;0.77;;;;;;;-143.84;99.20;45110.00;5088859;28;20447;-57
2023/09/24 02:00:04;;;;;;;1.10;1.00;;;;;;;-143.84;99.39;45170.94;5088839;28;20489;-57
2023/09/24 02:02:34;;;;;;;1.00;0.70;;;;;;;-143.84;99.38;45132.84;5088987;28;20463;-57
2023/09/24 02:05:01;;;;;;;1.10;0.50;;;;;;;-143.84;99.54;45110.00;5088620;28;20487;-57
2023/09/24 02:07:28;;;;;;;0.90;0.73;;;;;;;-143.84;99.52;45119.53;5088629;28;20485;-57
2023/09/24 02:09:55;;;;;;;1.20;1.00;;;;;;;-143.84;99.57;45132.84;5088990;28;20800;-57
2023/09/24 02:12:25;;;;;;;0.90;0.70;;;;;;;-143.84;99.43;45127.13;5088872;28;20440;-57
2023/09/24 02:14:53;;;;;;;0.90;0.50;;;;;;;-143.84;99.43;45111.91;5088718;28;20448;-57
2023/09/24 02:17:20;;;;;;;1.03;0.80;;;;;;;-143.84;99.66;45092.88;5088847;28;20539;-57
2023/09/24 02:19:47;;;;;;;0.80;0.70;;;;;;;-143.84;99.74;45113.81;5088371;28;20480;-57
2023/09/24 02:22:14;;;;;;;1.20;1.10;;;;;;;-143.84;99.69;45157.59;5088533;28;20493;-57
2023/09/24 02:24:41;;;;;;;1.00;0.70;;;;;;;-143.84;99.88;45132.84;5088767;28;20502;-57
2023/09/24 02:27:09;;;;;;;1.07;0.60;;;;;;;-143.84;100.00;45113.81;5088842;28;20489;-57
2023/09/24 02:29:38;;;;;;;0.90;0.60;;;;;;;-143.84;100.00;45115.72;5088668;28;20448;-57
2023/09/24 02:32:06;;;;;;;1.00;0.80;;;;;;;-143.84;99.92;45193.78;5088734;28;20451;-57
2023/09/24 02:34:33;;;;;;;1.30;0.70;;;;;;;-143.84;100.00;45119.53;5088573;28;20882;-57
2023/09/24 02:37:00;;;;;;;0.87;0.60;;;;;;;-143.84;100.00;45123.34;5088648;28;20439;-57
2023/09/24 02:39:27;;;;;;;1.10;0.67;;;;;;;-143.84;99.88;45125.22;5088469;28;20448;-57
2023/09/24 02:41:54;;;;;;;1.00;0.73;;;;;;;-143.84;99.89;45148.09;5088818;28;20493;-57
2023/09/24 02:44:22;;;;;;;0.93;0.53;;;;;;;-143.84;99.62;45117.63;5088682;28;20484;-57
2023/09/24 02:46:51;;;;;;;1.43;0.70;;;;;;;-143.84;99.55;45119.53;5088527;28;20961;-57
2023/09/24 02:49:20;;;;;;;1.10;1.00;;;;;;;-143.84;99.40;45136.66;5088197;28;20443;-57
2023/09/24 02:51:49;;;;;;;0.80;0.40;;;;;;;-143.84;99.28;45130.94;5088285;28;20450;-57
2023/09/24 02:54:17;;;;;;;0.80;0.50;;;;;;;-143.84;99.23;45115.72;5087880;28;20440;-57
2023/09/24 02:56:44;;;;;;;1.53;0.93;;;;;;;-143.84;99.06;45117.63;5087622;28;20446;-57
2023/09/24 02:59:12;;;;;;;0.90;0.60;;;;;;;-143.84;99.34;45144.28;5087664;28;20489;-57
2023/09/24 03:01:46;;;;;;;0.90;0.70;;;;;;;-143.84;99.13;45132.84;5087655;28;20602;-57
2023/09/24 03:04:15;;;;;;;0.90;0.70;;;;;;;-143.84;99.24;45119.53;5087629;28;20484;-57
2023/09/24 03:06:43;;;;;;;1.17;0.83;;;;;;;-143.84;99.23;45106.19;5087416;28;20848;-57
2023/09/24 03:09:11;;;;;;;0.90;0.67;;;;;;;-143.84;99.49;45117.63;5091397;28;20560;-57
2023/09/24 03:11:38;;;;;;;1.13;0.90;;;;;;;-143.84;99.50;45113.81;5091476;28;20463;-57
2023/09/24 03:14:06;;;;;;;0.90;0.70;;;;;;;-143.84;99.57;45140.47;5091373;28;20829;-57
2023/09/24 03:16:33;;;;;;;1.10;0.90;;;;;;;-143.84;99.60;45117.63;5092047;28;20447;-57
2023/09/24 03:19:01;;;;;;;1.03;0.90;;;;;;;-143.84;99.59;45117.63;5091727;28;20938;-57
2023/09/24 03:21:29;;;;;;;1.40;0.80;;;;;;;-143.84;99.37;45129.03;5091901;28;21174;-57
2023/09/24 03:23:57;;;;;;;0.90;0.70;;;;;;;-143.84;99.34;45121.44;5091520;28;20490;-57
2023/09/24 03:26:25;;;;;;;1.00;0.90;;;;;;;-143.84;99.54;45110.00;5091568;28;20447;-57
2023/09/24 03:28:52;;;;;;;1.00;0.83;;;;;;;-143.84;99.60;45159.50;5091666;28;20436;-57
2023/09/24 03:31:19;;;;;;;0.90;0.73;;;;;;;-143.84;99.72;45140.47;5091779;28;20435;-57
2023/09/24 03:33:46;;;;;;;0.90;0.70;;;;;;;-143.84;99.84;45123.34;5091698;28;21003;-57
2023/09/24 03:36:13;;;;;;;1.00;0.77;;;;;;;-143.84;99.70;45132.84;5091740;28;20440;-57
2023/09/24 03:38:42;;;;;;;1.10;1.00;;;;;;;-143.84;99.97;45125.22;5091643;28;20489;-57
2023/09/24 03:41:10;;;;;;;0.80;0.40;;;;;;;-143.84;99.79;45121.44;5091341;28;20501;-57
2023/09/24 03:43:38;;;;;;;1.07;0.97;;;;;;;-143.84;99.88;45127.13;5091225;28;20444;-57
2023/09/24 03:46:05;;;;;;;0.90;0.60;;;;;;;-143.84;99.83;45123.34;5091174;28;20451;-57
2023/09/24 03:48:32;;;;;;;0.90;0.80;;;;;;;-143.84;99.81;45123.34;5091704;28;20953;-57
2023/09/24 03:50:59;;;;;;;1.30;1.17;;;;;;;-143.84;99.65;45125.22;5091233;28;20440;-57
2023/09/24 03:53:26;;;;;;;1.63;1.23;;;;;;;-143.84;99.70;45129.03;5091201;28;20490;-57
2023/09/24 03:55:55;;;;;;;1.70;0.80;;;;;;;-143.84;99.57;45132.84;5091057;28;20428;-57
2023/09/24 03:58:22;;;;;;;0.80;0.53;;;;;;;-143.84;99.30;45127.13;5091147;28;20541;-57
2023/09/24 04:00:49;;;;;;;0.90;0.77;;;;;;;-143.84;98.97;45132.84;5090983;28;20439;-57
2023/09/24 04:03:18;;;;;;;1.00;0.73;;;;;;;-143.84;99.09;45121.44;5090868;28;20443;-57
2023/09/24 04:05:46;;;;;;;1.10;0.70;;;;;;;-143.84;99.32;45140.47;5091088;28;20485;-57
2023/09/24 04:08:13;;;;;;;0.90;0.70;;;;;;;-143.84;99.22;45115.72;5091225;28;20482;-57
2023/09/24 04:10:40;;;;;;;3.30;0.80;;;;;;;-143.84;99.26;45127.13;5090838;28;20505;-57
2023/09/24 04:13:09;;;;;;;1.03;0.93;;;;;;;-143.84;99.27;45125.22;5090867;28;20444;-57
2023/09/24 04:15:36;;;;;;;1.10;0.80;;;;;;;-143.84;99.17;45125.22;5090855;28;20845;-57
2023/09/24 04:18:04;;;;;;;1.10;0.77;;;;;;;-143.84;99.31;45130.94;5090224;28;20501;-57
2023/09/24 04:20:34;;;;;;;1.00;0.77;;;;;;;-143.84;99.31;45129.03;5090681;28;20443;-57
2023/09/24 04:23:01;;;;;;;1.10;0.70;;;;;;;-143.84;99.32;45129.03;5090828;28;20432;-57
2023/09/24 04:25:29;;;;;;;1.00;0.80;;;;;;;-143.84;99.57;45134.75;5090650;28;20505;-57
2023/09/24 04:27:56;;;;;;;0.87;0.67;;;;;;;-143.84;99.47;45110.00;5090688;28;20843;-57
2023/09/24 04:30:25;;;;;;;1.00;0.73;;;;;;;-143.84;99.66;45132.84;5090635;28;20443;-57
2023/09/24 04:32:53;;;;;;;1.20;1.10;;;;;;;-143.84;99.32;45134.75;5090578;28;20436;-57
2023/09/24 04:35:20;;;;;;;0.90;0.73;;;;;;;-143.84;99.52;45125.22;5089945;28;20435;-57
2023/09/24 04:37:47;;;;;;;0.90;0.50;;;;;;;-143.84;99.71;45140.47;5090398;28;20791;-57
2023/09/24 04:40:15;;;;;;;1.20;1.10;;;;;;;-143.84;99.77;45104.28;5090696;28;20831;-57
2023/09/24 04:42:42;;;;;;;1.10;1.00;;;;;;;-143.84;99.70;45136.66;5090138;28;20444;-57
2023/09/24 04:45:11;;;;;;;1.10;0.90;;;;;;;-143.84;99.68;45134.75;5090551;28;20557;-57
2023/09/24 04:47:40;;;;;;;0.90;0.70;;;;;;;-143.84;99.32;45108.09;5090316;28;20440;-57
2023/09/24 04:50:10;;;;;;;1.10;1.00;;;;;;;-143.84;99.16;45110.00;5090051;28;20448;-57
2023/09/24 04:52:38;;;;;;;1.10;1.00;;;;;;;-143.84;99.07;45121.44;5089931;28;20476;-57
2023/09/24 04:55:06;;;;;;;1.00;0.90;;;;;;;-143.84;98.87;45144.28;5090190;28;20439;-57
2023/09/24 04:57:33;;;;;;;0.87;0.67;;;;;;;-143.84;99.29;45121.44;5090055;28;20439;-57
2023/09/24 05:00:00;;;;;;;1.13;0.93;;;;;;;-143.84;99.34;45100.47;5097593;28;20448;-57
2023/09/24 05:02:28;;;;;;;1.20;0.90;;;;;;;-143.84;99.30;45115.72;5096695;28;20446;-57
2023/09/24 05:04:56;;;;;;;1.20;1.10;;;;;;;-143.84;99.14;45117.63;5097920;28;20489;-57
2023/09/24 05:07:23;;;;;;;0.90;0.50;;;;;;;-143.84;98.78;45125.22;5094844;28;21033;-57
2023/09/24 05:09:51;;;;;;;1.33;1.07;;;;;;;-143.84;97.93;45134.75;5099888;28;20462;-57
2023/09/24 05:12:18;;;;;;;1.00;0.87;;;;;;;-143.84;95.97;45117.63;5097400;28;20521;-57
2023/09/24 05:14:46;;;;;;;1.00;0.73;;;;;;;-143.84;95.32;45134.75;5100060;28;20447;-57
2023/09/24 05:17:13;;;;;;;1.23;1.13;;;;;;;-143.84;94.61;45089.06;5097658;28;20848;-57
2023/09/24 05:19:40;;;;;;;1.10;0.80;;;;;;;-143.84;93.25;45127.13;5100937;28;20486;-57
2023/09/24 05:22:09;;;;;;;0.90;0.80;;;;;;;-143.84;92.31;45130.94;5097819;28;20497;-57
2023/09/24 05:24:36;;;;;;;1.00;0.90;;;;;;;-143.84;92.53;45117.63;5094222;28;20472;-57
2023/09/24 05:27:17;;;;;;;0.93;0.67;;;;;;;-143.84;92.63;45106.19;5094544;28;20517;-57
2023/09/24 05:29:56;;;;;;;1.50;1.00;;;;;;;-143.84;92.20;45110.00;5086543;28;20466;-57
2023/09/24 05:32:28;;;;;;;1.00;0.90;;;;;;;-143.84;90.75;45094.78;5086055;28;20448;-57
2023/09/24 05:38:29;;;;;;;1.10;0.70;;;;;;;-143.84;90.31;45113.81;5090643;28;20810;-57
2023/09/24 05:40:57;;;;;;;0.93;0.83;;;;;;;-143.84;89.81;45104.28;5088283;28;20517;-57
2023/09/24 05:43:24;;;;;;;1.10;1.00;;;;;;;-143.84;89.74;45110.00;5089141;28;20440;-57
2023/09/24 05:45:51;;;;;;;0.97;0.73;;;;;;;-143.84;88.89;45087.16;5088929;28;20476;-57
2023/09/24 05:48:20;;;;;;;1.53;0.90;;;;;;;-143.84;87.59;45100.47;5087705;28;20431;-57
2023/09/24 05:50:47;;;;;;;0.90;0.70;;;;;;;-143.84;86.51;45077.63;5087406;28;20450;-57
2023/09/24 05:53:15;;;;;;;1.00;0.70;;;;;;;-143.84;85.97;45092.88;5087885;28;20513;-57
2023/09/24 05:55:53;;;;;;;0.90;0.70;;;;;;;-143.84;85.49;45070.00;5088009;28;21173;-57
2023/09/24 05:58:20;;;;;;;1.10;0.90;;;;;;;-143.84;84.94;45079.53;5088110;28;20550;-57
2023/09/24 06:00:48;;;;;;;1.17;1.07;;;;;;;-143.84;82.97;45094.78;5087990;28;21404;-57
2023/09/24 06:03:15;;;;;;;0.90;0.80;;;;;;;-143.84;81.97;45068.13;5088616;28;20440;-57
2023/09/24 06:05:43;;;;;;;0.90;0.70;;;;;;;-143.84;81.37;45106.19;5089183;28;20483;-58
2023/09/24 06:08:10;;;;;;;1.10;0.80;;;;;;;-143.84;81.07;45085.25;5088915;28;20441;-57
2023/09/24 06:10:43;;;;;;;1.10;0.70;;;;;;;-143.84;81.65;45064.31;5088978;28;20514;-57
2023/09/24 06:13:13;;;;;;;0.80;0.40;;;;;;;-143.84;82.44;45070.00;5088748;28;20436;-57
2023/09/24 06:15:41;;;;;;;1.17;1.07;;;;;;;-143.84;81.99;45054.78;5088980;28;20794;-57
2023/09/24 06:18:08;;;;;;;0.90;0.50;;;;;;;-143.84;80.42;45071.91;5088392;28;20541;-57
2023/09/24 06:20:38;;;;;;;1.00;0.73;;;;;;;-143.84;80.11;45089.06;5068620;28;20502;-57
2023/09/24 06:23:05;;;;;;;1.47;0.97;;;;;;;-143.84;81.16;45060.50;5056934;28;20539;-57
2023/09/24 06:25:33;;;;;;;0.90;0.50;;;;;;;-143.84;80.60;45089.06;5073856;28;20488;-57
2023/09/24 06:28:00;;;;;;;0.80;0.40;;;;;;;-143.84;79.81;45060.50;5063955;28;20503;-57
2023/09/24 06:30:29;;;;;;;1.00;0.80;;;;;;;-143.84;79.24;45089.06;5078511;28;21036;-57
2023/09/24 06:32:56;;;;;;;0.90;0.70;;;;;;;-143.84;80.55;45092.88;5069282;28;20950;-57
2023/09/24 06:35:23;;;;;;;1.30;1.03;;;;;;;-143.84;81.31;45062.41;5075926;28;20982;-57
2023/09/24 06:37:50;;;;;;;1.67;0.90;;;;;;;-143.84;81.48;45087.16;5073172;28;20480;-57
2023/09/24 06:40:18;;;;;;;0.97;0.80;;;;;;;-143.84;79.86;45066.22;5071030;28;20513;-57
2023/09/24 06:42:45;;;;;;;2.47;1.53;;;;;;;-143.84;78.64;45052.88;5072263;28;20439;-58
2023/09/24 06:45:12;;;;;;;0.93;0.70;;;;;;;-143.84;77.09;45068.13;5077536;28;20476;-57
2023/09/24 06:47:41;;;;;;;1.00;0.80;;;;;;;-143.84;76.83;45041.44;5083637;28;20505;-57
2023/09/24 06:50:10;;;;;;;1.20;0.70;;;;;;;-143.84;77.16;45075.72;5075101;28;21360;-57
2023/09/24 06:52:37;;;;;;;0.87;0.50;;;;;;;-143.84;75.90;45052.88;5082709;28;20435;-57
2023/09/24 06:55:05;;;;;;;1.50;1.27;;;;;;;-143.84;75.40;45056.69;5075698;28;20453;-57
2023/09/24 06:57:33;;;;;;;1.00;0.60;;;;;;;-143.84;75.30;45031.94;5071940;28;20441;-57
2023/09/24 07:00:00;;;;;;;0.90;0.60;;;;;;;-143.84;74.64;45047.16;5071154;28;20514;-58
2023/09/24 07:02:27;;;;;;;0.90;0.50;;;;;;;-143.84;71.59;45035.75;5079347;28;20501;-57
2023/09/24 07:04:56;;;;;;;0.97;0.70;;;;;;;-143.84;69.13;45079.53;5079722;28;20480;-57
2023/09/24 07:07:23;;;;;;;0.90;0.60;;;;;;;-143.84;70.34;45052.88;5079018;28;20450;-57
2023/09/24 07:09:50;;;;;;;1.27;0.73;;;;;;;-143.84;71.03;45050.97;5079314;28;20576;-58
2023/09/24 07:12:17;;;;;;;0.90;0.50;;;;;;;-143.84;70.66;45041.44;5080014;28;20432;-58
2023/09/24 07:14:44;;;;;;;1.47;0.97;;;;;;;-143.84;70.71;45050.97;5081831;28;20451;-58
2023/09/24 07:17:12;;;;;;;0.90;0.57;;;;;;;-143.84;69.48;45030.03;5079734;28;20468;-58
2023/09/24 07:19:39;;;;;;;0.97;0.80;;;;;;;-143.84;67.61;45037.66;5078877;28;20542;-58
2023/09/24 07:22:08;;;;;;;1.00;0.67;;;;;;;-143.84;68.92;45052.88;5078247;28;20869;-57
2023/09/24 07:24:35;;;;;;;0.90;0.53;;;;;;;-143.84;67.28;45030.03;5079504;28;20848;-58
2023/09/24 07:27:03;;;;;;;0.90;0.50;;;;;;;-143.84;66.62;45028.13;5082261;28;20537;-58
2023/09/24 07:29:30;;;;;;;0.90;0.70;;;;;;;-143.84;66.34;45035.75;5079028;28;20454;-58
2023/09/24 07:31:57;;;;;;;0.90;0.60;;;;;;;-143.84;66.28;45031.94;5081114;28;20441;-58
2023/09/24 07:34:24;;;;;;;1.20;0.67;;;;;;;-143.84;65.47;45024.31;5079468;28;20954;-57
2023/09/24 07:36:53;;;;;;;1.30;0.80;;;;;;;-143.84;65.87;45024.31;5074715;28;20453;-58
2023/09/24 07:39:21;;;;;;;1.30;0.50;;;;;;;-143.84;65.95;44999.56;5075870;28;20445;-58
2023/09/24 07:41:49;;;;;;;0.90;0.47;;;;;;;-143.84;64.55;45007.19;5075552;28;20447;-57
2023/09/24 07:44:18;;;;;;;0.90;0.60;;;;;;;-143.84;61.82;45018.59;5076093;28;20455;-58
2023/09/24 07:46:47;;;;;;;0.90;0.53;;;;;;;-143.84;61.89;45012.88;5074564;28;20489;-57
2023/09/24 07:49:15;;;;;;;0.83;0.50;;;;;;;-143.84;62.43;45018.59;5067630;28;21010;-57
2023/09/24 07:51:42;;;;;;;1.00;0.70;;;;;;;-143.84;61.13;45030.03;5072236;28;20448;-58
2023/09/24 07:54:09;;;;;;;0.90;0.50;;;;;;;-143.84;59.68;45009.09;5080790;28;20437;-57
2023/09/24 07:56:42;;;;;;;1.27;0.70;;;;;;;-143.84;60.72;45022.41;5079958;28;20447;-57
2023/09/24 07:59:10;;;;;;;1.20;0.80;;;;;;;-143.84;61.19;45009.09;5080338;28;20481;-57
2023/09/24 08:01:37;;;;;;;0.90;0.43;;;;;;;-143.84;59.98;45012.88;5072962;28;20494;-57
2023/09/24 08:04:05;;;;;;;0.90;0.50;;;;;;;-143.84;59.66;45028.13;5070580;28;20448;-57
2023/09/24 08:06:32;;;;;;;0.80;0.40;;;;;;;-143.84;58.82;44999.56;5072154;28;20481;-57
2023/09/24 08:08:59;;;;;;;0.90;0.60;;;;;;;-143.84;58.68;45018.59;5077273;28;20444;-57
2023/09/24 08:11:27;;;;;;;0.90;0.80;;;;;;;-143.84;58.01;45022.41;5071380;28;20487;-57
2023/09/24 08:13:55;;;;;;;1.00;0.60;;;;;;;-143.84;56.69;45020.50;5078446;28;20462;-57
2023/09/24 08:16:22;;;;;;;1.00;0.70;;;;;;;-143.84;55.54;44976.72;5075970;28;20449;-57
2023/09/24 08:18:49;;;;;;;0.97;0.60;;;;;;;-143.84;56.24;45005.28;5072665;28;20496;-58
2023/09/24 08:21:18;;;;;;;1.00;0.60;;;;;;;-143.84;56.05;44997.66;5071761;28;20451;-57
2023/09/24 08:23:46;;;;;;;0.90;0.50;;;;;;;-143.84;56.23;45005.28;5070857;28;20796;-57
2023/09/24 08:26:13;;;;;;;0.90;0.60;;;;;;;-143.84;56.63;45026.22;5075435;28;20580;-57
2023/09/24 08:28:40;;;;;;;1.53;0.80;;;;;;;-143.84;57.68;45001.47;5076803;28;20432;-58
2023/09/24 08:31:12;;;;;;;0.90;0.63;;;;;;;-143.84;57.02;44991.94;5078014;28;20436;-58
2023/09/24 08:33:39;;;;;;;0.90;0.67;;;;;;;-143.84;54.93;45003.38;5070755;28;21311;-58
2023/09/24 08:36:11;;;;;;;0.87;0.60;;;;;;;-143.84;53.59;44991.94;5068683;28;20449;-58
2023/09/24 08:38:38;;;;;;;1.10;0.67;;;;;;;-143.84;53.97;44991.94;5064775;28;20451;-57
2023/09/24 08:41:11;;;;;;;0.90;0.70;;;;;;;-143.84;53.18;44999.56;5070163;28;20476;-57
2023/09/24 08:43:42;;;;;;;1.00;0.67;;;;;;;-143.84;53.89;45001.47;5070272;28;21078;-57
2023/09/24 08:46:12;;;;;;;0.90;0.57;;;;;;;-143.84;52.41;44971.00;5069908;28;20994;-57
2023/09/24 08:48:40;;;;;;;1.00;0.70;;;;;;;-143.84;52.42;44978.63;5069979;28;20858;-57
2023/09/24 08:51:09;;;;;;;0.90;0.70;;;;;;;-143.84;52.81;45001.47;5069698;28;20426;-57
2023/09/24 08:53:37;;;;;;;0.90;0.60;;;;;;;-143.84;53.33;44976.72;5069610;28;20445;-57
2023/09/24 08:56:04;;;;;;;1.00;0.73;;;;;;;-143.84;54.40;44980.53;5070102;28;20429;-57
2023/09/24 08:58:31;;;;;;;1.03;0.57;;;;;;;-143.84;53.00;44990.03;5069707;28;20449;-57
2023/09/24 09:01:00;;;;;;;0.90;0.70;;;;;;;-143.84;52.21;44993.84;5069704;28;21045;-57
2023/09/24 09:03:29;;;;;;;0.90;0.53;;;;;;;-143.84;51.98;44969.09;5069765;28;20440;-57
2023/09/24 09:05:56;;;;;;;0.90;0.60;;;;;;;-143.84;52.83;45003.38;5068071;28;21395;-57
2023/09/24 09:08:23;;;;;;;0.90;0.60;;;;;;;-143.84;54.28;44993.84;5069731;28;20437;-57
2023/09/24 09:10:51;;;;;;;0.90;0.60;;;;;;;-143.84;51.36;44986.22;5069584;28;21264;-57
2023/09/24 09:13:19;;;;;;;1.10;0.80;;;;;;;-143.84;50.50;44993.84;5069554;28;20544;-58
2023/09/24 09:15:48;;;;;;;0.90;0.60;;;;;;;-143.84;51.98;44990.03;5069255;28;20448;-57
2023/09/24 09:18:23;;;;;;;1.00;0.80;;;;;;;-143.84;51.53;44988.13;5069248;28;20487;-57
2023/09/24 09:20:58;;;;;;;1.27;0.90;;;;;;;-143.84;53.21;44971.00;5068725;28;20519;-57
2023/09/24 09:23:34;;;;;;;0.90;0.67;;;;;;;-143.84;52.46;45005.28;5069380;28;20455;-57
2023/09/24 09:26:01;;;;;;;1.20;1.10;;;;;;;-143.84;53.78;44978.63;5069349;28;20487;-57
2023/09/24 09:28:30;;;;;;;0.90;0.70;;;;;;;-143.84;53.85;44976.72;5069379;28;20452;-57
2023/09/24 09:31:02;;;;;;;0.90;0.70;;;;;;;-143.84;54.16;45005.28;5069063;28;20441;-57
2023/09/24 09:33:30;;;;;;;0.97;0.70;;;;;;;-143.84;54.42;45014.78;5069111;28;20479;-57
2023/09/24 09:35:59;;;;;;;1.10;0.90;;;;;;;-143.84;53.99;44969.09;5068463;28;21256;-57
2023/09/24 09:38:26;;;;;;;0.90;0.70;;;;;;;-143.84;52.56;45007.19;5068760;28;20503;-57
2023/09/24 09:40:55;;;;;;;1.00;0.60;;;;;;;-143.84;53.50;45014.78;5069085;28;20527;-57
2023/09/24 09:43:27;;;;;;;2.33;1.87;;;;;;;-143.84;54.21;44988.13;5069093;28;20480;-57
2023/09/24 09:45:55;;;;;;;1.00;0.87;;;;;;;-143.84;54.69;44965.28;5068877;28;21146;-57
2023/09/24 09:48:30;;;;;;;0.80;0.50;;;;;;;-143.84;55.28;45001.47;5069114;28;20443;-57
2023/09/24 09:51:07;;;;;;;0.90;0.60;;;;;;;-143.84;53.55;44995.75;5068293;28;20528;-57
2023/09/24 09:53:36;;;;;;;1.10;0.83;;;;;;;-143.84;52.68;44991.94;5068606;28;20437;-57
2023/09/24 09:56:05;;;;;;;0.97;0.83;;;;;;;-143.84;53.39;45005.28;5068736;28;21208;-57
2023/09/24 09:58:36;;;;;;;1.13;0.70;;;;;;;-143.84;54.45;44986.22;5069055;28;20429;-57
2023/09/24 10:01:05;;;;;;;1.10;0.80;;;;;;;-143.84;53.59;45009.09;5068791;28;20848;-57
2023/09/24 10:03:35;;;;;;;1.00;0.70;;;;;;;-143.84;54.09;44984.31;5068421;28;20833;-57
2023/09/24 10:06:07;;;;;;;0.80;0.40;;;;;;;-143.84;53.39;44984.31;5068420;28;20556;-58
2023/09/24 10:08:42;;;;;;;1.13;0.73;;;;;;;-143.84;53.94;44963.38;5068475;28;20498;-57
2023/09/24 10:11:10;;;;;;;1.00;0.70;;;;;;;-143.84;55.99;45007.19;5068700;28;20467;-57
2023/09/24 10:13:49;;;;;;;1.10;0.60;;;;;;;-143.84;57.82;45020.50;5068804;28;20443;-57
2023/09/24 10:16:38;;;;;;;1.00;0.70;;;;;;;-143.84;59.24;45003.38;5068379;28;20456;-57
2023/09/24 10:19:09;;;;;;;0.93;0.67;;;;;;;-143.84;59.15;45003.38;5067869;28;20520;-57
2023/09/24 10:21:39;;;;;;;0.80;0.50;;;;;;;-143.84;59.11;45030.03;5068611;28;20441;-57
2023/09/24 10:24:47;;;;;;;0.83;0.50;;;;;;;-143.84;61.14;45018.59;5068378;28;20445;-57
2023/09/24 10:27:15;;;;;;;0.90;0.53;;;;;;;-143.84;61.42;45007.19;5068402;28;20816;-57
2023/09/24 10:30:01;;;;;;;1.00;0.60;;;;;;;-143.84;61.79;45001.47;5068153;28;20437;-57
2023/09/24 10:32:29;;;;;;;1.00;0.90;;;;;;;-143.84;61.80;45024.31;5068485;28;20440;-57
2023/09/24 10:35:10;;;;;;;1.00;0.70;;;;;;;-143.84;62.26;45005.28;5067830;28;20441;-57
2023/09/24 10:38:01;;;;;;;0.90;0.50;;;;;;;-143.84;61.12;44999.56;5068181;28;20531;-57
2023/09/24 10:40:29;;;;;;;1.13;0.77;;;;;;;-143.84;58.25;45012.88;5068057;28;20469;-57
2023/09/24 10:43:21;;;;;;;1.23;1.13;;;;;;;-143.84;59.19;45026.22;5068434;28;20429;-57
2023/09/24 10:45:48;;;;;;;1.37;1.00;;;;;;;-143.84;60.50;45033.84;5068519;28;20499;-57
2023/09/24 10:48:16;;;;;;;0.80;0.40;;;;;;;-143.84;59.78;45018.59;5067876;28;20926;-57
2023/09/24 10:50:44;;;;;;;1.93;0.73;;;;;;;-143.84;58.19;44999.56;5067928;28;20512;-57
2023/09/24 10:53:13;;;;;;;1.00;0.70;;;;;;;-143.84;59.36;44997.66;5068074;28;20540;-57
2023/09/24 10:55:41;;;;;;;0.90;0.50;;;;;;;-143.84;56.85;45009.09;5068275;28;20448;-57
2023/09/24 10:58:13;;;;;;;0.90;0.50;;;;;;;-143.84;57.39;44993.84;5067959;28;20445;-57
2023/09/24 11:00:43;;;;;;;0.90;0.67;;;;;;;-143.84;58.58;45007.19;5068164;28;20463;-57
2023/09/24 11:03:11;;;;;;;0.90;0.43;;;;;;;-143.84;59.67;45009.09;5067541;28;20455;-57
2023/09/24 11:05:43;;;;;;;1.27;0.93;;;;;;;-143.84;59.25;45026.22;5068540;28;20429;-57
2023/09/24 11:08:14;;;;;;;0.90;0.53;;;;;;;-143.84;60.78;45026.22;5067791;28;20472;-57
2023/09/24 11:10:41;;;;;;;1.17;0.70;;;;;;;-143.84;58.25;45030.03;5068404;28;20532;-57
2023/09/24 11:13:08;;;;;;;0.90;0.70;;;;;;;-143.84;58.89;45012.88;5067739;28;20429;-57
2023/09/24 11:15:37;;;;;;;1.33;0.77;;;;;;;-143.84;59.84;45009.09;5067888;28;20441;-57
2023/09/24 11:18:06;;;;;;;1.00;0.70;;;;;;;-143.84;60.24;45020.50;5067211;28;20471;-57
2023/09/24 11:20:34;;;;;;;1.00;0.67;;;;;;;-143.84;60.55;45001.47;5067732;28;20428;-57
2023/09/24 11:23:05;;;;;;;0.90;0.50;;;;;;;-143.84;61.79;45003.38;5067781;28;20432;-57
2023/09/24 11:25:34;;;;;;;0.90;0.50;;;;;;;-143.84;62.29;45001.47;5067810;28;20532;-57
2023/09/24 11:28:02;;;;;;;1.03;0.93;;;;;;;-143.84;60.69;45007.19;5067854;28;20483;-57